# Land Stadt Wetter Temperatur Luftdruck Luftfeuchtigkeit Sichtweite Windgeschwindigkeit Windrichtung Ortszeit
1 vn Hanoi Clouds 35 1006 50 10000 5 0 02.08.2018 14:21
2 de Bremen Clouds 16 1015 77 10000 4 0 02.08.2018 14:22
3 de Hannover Clouds 19 1015 72 10000 4 0 02.08.2018 14:21
4 de Stuttgart Clouds 17 1017 55 10000 2 0 02.08.2018 14:22
5 mg Antananarivo Mist 13 1022 100 2500 2 0 02.08.2018 14:21
6 de Braunschweig Clouds 18 1015 63 10000 4 0 02.08.2018 14:21
7 de Köln Clouds 17 1016 67 10000 4 0 02.08.2018 14:21
8 it Palermo Clouds 27 1012 74 10000 4 0 02.08.2018 14:22
9 cl Santiago Mist 7 1019 93 5000 4 0 02.08.2018 14:23
10 at Innsbruck Clouds 13 1018 72 10000 4 0 02.08.2018 14:23
11 es Madrid Clouds 20 1019 37 10000 8 10 02.08.2018 14:23
12 ca Montreal Clear 20 1011 88 14484 8 10 02.08.2018 14:22
13 bg Warna Clear 20 1016 49 10000 17 10 02.08.2018 14:21
14 mv Male Clouds 29 1009 66 0 5 12 02.08.2018 14:23
15 de Trier Clear 15 1017 62 10000 4 12 02.08.2018 14:21
16 do Santo Domingo Clouds 27 1016 88 10000 8 20 02.08.2018 14:21
17 ad Andorra la Vella Clouds 12 1018 75 0 6 26 02.08.2018 14:22
18 qa Doha Clear 40 998 26 10000 8 30 02.08.2018 14:23
19 tr Istanbul Clouds 23 1015 44 10000 28 30 02.08.2018 14:23
20 jp Tokio Clouds 24 1000 88 7000 9 50 02.08.2018 14:22
21 de Frankfurt Clouds 18 1016 52 10000 5 50 02.08.2018 14:22
22 ke Nairobi Clouds 16 1022 82 10000 6 54 02.08.2018 14:22
23 fi Rovaniemi Clouds 11 1012 100 10000 17 60 02.08.2018 14:21
24 tr Ankara Clouds 21 1014 46 10000 13 60 02.08.2018 14:23
25 it Mailand Clouds 22 1017 64 10000 8 60 02.08.2018 14:21
26 bo La Paz Clouds -3 1039 79 10000 5 60 02.08.2018 14:22
27 es Sevilla Clear 24 1014 69 10000 4 60 02.08.2018 14:22
28 au Darwin Clear 31 1011 16 10000 8 60 02.08.2018 14:22
29 au Alice Springs Clear 18 1021 25 10000 18 70 02.08.2018 14:21
30 us Honolulu Clouds 26 1015 61 16093 18 70 02.08.2018 14:22
31 at Wien Clouds 16 1019 67 10000 5 70 02.08.2018 14:22
32 is Reykjavik Clouds 11 1009 81 10000 13 70 02.08.2018 14:22
33 af Kabul Clouds 25 1017 41 10000 15 70 02.08.2018 14:21
34 de München Clouds 14 1018 92 0 5 77 02.08.2018 14:21
35 nz Wellington Clouds 7 1022 81 10000 4 80 02.08.2018 14:23
36 no Hammerfest Clear 10 1018 76 10000 18 80 02.08.2018 14:22
37 es Tarifa Clear 24 1015 73 10000 15 100 02.08.2018 14:21
38 ch Bern Clouds 17 1018 72 10000 5 110 02.08.2018 14:23
39 ru Anadyr Rain 10 1002 93 10000 18 110 02.08.2018 14:23
40 br Manaus Clouds 23 1014 94 10000 4 110 02.08.2018 14:21
41 us Death Valley Clear 25 1002 11 0 8 114 02.08.2018 14:22
42 ck Avarua Clouds 20 1016 60 10000 11 120 02.08.2018 14:22
43 br Rio de Janeiro Clouds 20 1014 88 10000 5 120 02.08.2018 14:22
44 bg Sofia Clouds 18 1017 55 10000 21 120 02.08.2018 14:21
45 fj Suva Clouds 25 1013 78 10000 15 130 02.08.2018 14:21
46 de Nürnberg Clouds 17 1017 55 10000 11 130 02.08.2018 14:21
47 no Oslo Rain 13 988 95 0 5 135 02.08.2018 14:23
48 de Hiddensee Clouds 18 1019 75 0 3 135 02.08.2018 14:21
49 pg Port Moresby Rain 26 1009 86 0 32 146 02.08.2018 14:21
50 de Dresden Clear 19 1017 48 10000 13 150 02.08.2018 14:22
51 ae Dubai Clear 39 999 42 10000 18 150 02.08.2018 14:21
52 de Magdeburg Clouds 19 1016 60 0 2 158 02.08.2018 14:22
53 us Chicago Clear 22 1015 60 16093 8 160 02.08.2018 14:23
54 mn Ulaanbaatar Thunderstorm 25 1010 50 10000 25 160 02.08.2018 14:23
55 de Hamburg Clouds 18 1014 63 10000 9 170 02.08.2018 14:21
56 de Berlin Clear 18 1016 59 10000 9 170 02.08.2018 14:21
57 ec San Cristobal Clouds 20 1013 91 0 17 172 02.08.2018 14:22
58 us Tucson Clouds 33 1015 30 16093 9 176 02.08.2018 14:21
59 de Emden Clouds 15 1014 91 0 5 179 02.08.2018 14:21
60 se Stockholm Clouds 16 1014 77 10000 8 180 02.08.2018 14:23
61 cn Peking Clear 37 998 40 0 8 186 02.08.2018 14:23
62 bs Nassau Clouds 28 1017 83 10000 8 190 02.08.2018 14:22
63 us Fairbanks Clouds 16 1011 59 16093 9 190 02.08.2018 14:23
64 cn Lhasa Clouds 23 1003 31 0 8 191 02.08.2018 14:22
65 sb Honiara Clouds 27 1008 83 10000 11 200 02.08.2018 14:22
66 us Denver Clouds 20 1016 56 16093 21 200 02.08.2018 14:21
67 in Jagatsukh Rain 26 1007 43 0 13 203 02.08.2018 14:22
68 de Torfhaus Clouds 17 1017 74 0 6 209 02.08.2018 14:22
69 za Kapstadt Rain 9 1024 66 10000 13 210 02.08.2018 14:22
70 de Oberstdorf Clouds 13 1018 90 0 2 210 02.08.2018 14:21
71 in Mumbai Rain 28 1004 94 2000 9 220 02.08.2018 14:22
72 us Las Vegas Clear 36 1008 16 16093 22 220 02.08.2018 14:21
73 de Flensburg Rain 14 1014 82 7000 15 230 02.08.2018 14:21
74 id Jakarta Haze 29 1008 83 4000 8 230 02.08.2018 14:22
75 us Miami Clouds 27 1016 79 16093 5 230 02.08.2018 14:23
76 de Kassel Clouds 17 1016 67 10000 2 240 02.08.2018 14:21
77 sa Riad Clouds 39 1005 13 10000 15 240 02.08.2018 14:21
78 gb Glasgow Clouds 12 1016 81 10000 13 240 02.08.2018 14:21
79 th Bangkok Clouds 33 1007 51 0 11 243 02.08.2018 14:21
80 mn Uliastai Clear 21 1003 29 0 23 244 02.08.2018 14:23
81 ma Marrakesch Clear 22 1014 73 0 8 250 02.08.2018 14:23
82 iq Bagdad Clear 37 1000 29 10000 9 250 02.08.2018 14:22
83 uy Montevideo Clear 6 1021 56 10000 15 250 02.08.2018 14:22
84 de Helgoland Rain 16 1014 82 10000 8 250 02.08.2018 14:22
85 fi Helsinki Clouds 14 1015 72 10000 13 250 02.08.2018 14:21
86 in Nagpur Haze 30 1005 79 4000 4 250 02.08.2018 14:21
87 us Nome Clear 12 1010 76 16093 26 260 02.08.2018 14:23
88 us Los Angeles Clear 18 1014 77 14484 5 260 02.08.2018 14:22
89 us New York Clear 23 1012 60 16093 9 260 02.08.2018 14:22
90 fr Bordeaux Clouds 18 1020 88 10000 8 260 02.08.2018 14:21
91 au Sydney Rain 14 1009 82 0 5 262 02.08.2018 14:22
92 ru Amderma Clouds 8 1013 73 0 38 269 02.08.2018 14:23
93 ph Manila Clouds 34 1008 59 10000 15 270 02.08.2018 14:21
94 au Perth Clouds 17 1014 51 10000 22 270 02.08.2018 14:21
95 de Freiburg Clouds 17 1014 57 0 4 271 02.08.2018 14:22
96 cd Kisangani Rain 23 1012 89 0 4 275 02.08.2018 14:23
97 gb Manchester Clouds 14 1018 82 10000 13 280 02.08.2018 14:21
98 mx Mexiko Stadt Clouds 17 1029 63 16093 9 280 02.08.2018 14:21
99 ie Dublin Clouds 11 1020 93 10000 24 280 02.08.2018 14:21
100 mx Veracruz Clouds 26 1013 77 0 2 285 02.08.2018 14:21
101 et Addis Abeba Rain 17 1015 69 0 10 288 02.08.2018 14:23
102 jp Nagasaki Rain 24 1003 78 10000 11 290 02.08.2018 14:21
103 gl Nuuk Clouds 4 1012 93 0 5 290 02.08.2018 14:22
104 fr Paris Clouds 17 1018 51 10000 5 290 02.08.2018 14:22
105 ar Buenos Aires Clear 4 1024 48 10000 5 290 02.08.2018 14:22
106 ar Ushuaia Clouds 0 1014 90 10000 15 290 02.08.2018 14:22
107 pe Cusco Clear 7 1022 69 0 3 295 02.08.2018 14:23
108 ru Surgut Clouds 18 1021 52 10000 14 300 02.08.2018 14:23
109 pt Lissabon Clouds 21 1015 68 10000 22 310 02.08.2018 14:22
110 ru Jakutsk Clear 28 1004 28 10000 18 310 02.08.2018 14:22
111 gb London Clouds 16 1017 82 10000 13 310 02.08.2018 14:22
112 ar Esquel Clouds -5 1025 92 0 4 313 02.08.2018 14:22
113 tr Alanya Dust 25 1009 61 4000 7 314 02.08.2018 14:22
114 ma Casablanca Clouds 21 1013 88 6000 8 320 02.08.2018 14:23
115 ch Andermatt Clouds 10 1014 83 0 2 328 02.08.2018 14:23
116 ua Kiew Clear 16 1012 63 10000 22 330 02.08.2018 14:21
117 fr Nizza Clouds 23 1015 64 10000 9 330 02.08.2018 14:22
118 es Barcelona Clouds 23 1016 78 10000 21 330 02.08.2018 14:22
119 cn Shanghai Clouds 27 1007 78 10000 11 330 02.08.2018 14:21
120 es Palma de Mallorca Clouds 23 1017 68 10000 5 330 02.08.2018 14:22
121 ru Werchojansk Clouds 23 1004 43 0 35 341 02.08.2018 14:22
122 bo Potisi Clear 1 1021 79 0 6 343 02.08.2018 14:22
123 kr Seoul Clouds 24 1003 60 10000 5 350 02.08.2018 14:21
124 gr Athen Clouds 24 1012 47 10000 18 350 02.08.2018 14:22
125 it Rom Clear 21 1013 49 10000 9 350 02.08.2018 14:23
126 eg Kairo Clouds 26 1006 69 10000 5 350 02.08.2018 14:22
127 es Las Palmas de Gran Canaria Clouds 21 1014 73 10000 41 360 02.08.2018 14:21
128 ru Moskau Rain 17 1010 87 10000 18 360 02.08.2018 14:22